Lapis Arrow — C6VH5 — position and weather

sailwx.info

Track history (hours):
 
Tides and Currents Weather Stations Pressure Air Temp Water Temp Dewpoint Dewpoint Depression Visibility Wind Speed Wind Dir Waves Ship Positions

Lapis Arrow

Last reported at 2018-Feb-18 13:46 UTC. Time now 2018-Feb-21 03:51 UTC.
Position N 37°44' E 024°18'.

Length 176 m; draft 7.3 m.

Type: Cargo ship. MMSI: 308800800.

Date/timePositionNaut miles runAvg speedWind from/ knotsBaromVisibWave heightAir tempDewpointWater temp
2018-Feb-18 13:46N 37°44' E 024°18'38513.6
2018-Feb-17 09:26N 37°41' E 016°12'715.6
2018-Feb-17 08:58N 37°43' E 016°03'715.8
2018-Feb-17 08:30N 37°45' E 015°54'815.4
2018-Feb-17 08:00N 37°48' E 015°45'814.7
2018-Feb-17 07:26N 37°54' E 015°37'715.6
2018-Feb-17 07:00N 38°01' E 015°36'816.7
2018-Feb-17 06:29N 38°09' E 015°35'915.3
2018-Feb-17 05:54N 38°17' E 015°41'512.7
2018-Feb-17 05:30N 38°22' E 015°39'815.2
2018-Feb-17 04:59N 38°29' E 015°35'1816.1
2018-Feb-17 03:54N 38°45' E 015°27'4316.1
2018-Feb-17 01:15N 39°25' E 015°08'516.1
2018-Feb-17 00:55N 39°30' E 015°05'  
2018-Feb-14 18:48N 38°59' E 003°04'515.4
2018-Feb-14 18:26N 38°60' E 002°57'715.4
2018-Feb-14 17:59N 39°01' E 002°49'815.4
2018-Feb-14 17:30N 39°02' E 002°39'4415.7
2018-Feb-14 14:43N 39°09' E 001°43'316.2
2018-Feb-14 14:30N 39°09' E 001°39'8915.9
2018-Feb-14 08:52N 39°26' W 000°15'3 8.5
2018-Feb-14 08:30N 39°26' W 000°18'0 0.3
2018-Feb-14 07:59N 39°26' W 000°18'0 0.0
2018-Feb-14 07:16N 39°26' W 000°18'0 0.0
2018-Feb-14 06:58N 39°26' W 000°18'0 0.0
2018-Feb-14 05:40N 39°26' W 000°18'0 0.0
2018-Feb-14 05:28N 39°26' W 000°18'0 0.0
2018-Feb-14 04:55N 39°26' W 000°18'0 0.0
2018-Feb-14 04:28N 39°26' W 000°18'0 0.0
2018-Feb-14 03:36N 39°26' W 000°18'0 0.0
2018-Feb-14 03:24N 39°26' W 000°18'0 0.0
2018-Feb-14 02:44N 39°26' W 000°18'0 0.0
2018-Feb-13 18:05N 39°26' W 000°18'0 0.5
2018-Feb-13 17:59N 39°26' W 000°18'2 4.3
2018-Feb-13 17:28N 39°26' W 000°16'15414.7
2018-Feb-13 06:58N 41°02' E 002°23'716.0
2018-Feb-13 06:31N 41°07' E 002°30'15616.0
2018-Feb-12 20:46N 42°60' E 004°54'515.3
2018-Feb-12 20:26N 43°04' E 004°58'715.4
2018-Feb-12 19:59N 43°11' E 005°01'815.9
2018-Feb-12 19:30N 43°18' E 004°59'611.1
2018-Feb-12 19:00N 43°23' E 004°56'4 8.1
2018-Feb-12 18:30N 43°24' E 004°51'0 0.2
2018-Feb-12 17:58N 43°24' E 004°51'0 0.0
2018-Feb-12 17:27N 43°24' E 004°51'0 0.0
2018-Feb-12 17:00N 43°24' E 004°51'0 0.0
2018-Feb-12 16:28N 43°24' E 004°51'0 0.0
2018-Feb-12 15:58N 43°24' E 004°51'0 0.0
2018-Feb-12 15:17N 43°24' E 004°51'0 0.0
2018-Feb-12 14:59N 43°24' E 004°51'0 0.0
2018-Feb-12 14:30N 43°24' E 004°51'0 0.0
2018-Feb-12 13:55N 43°24' E 004°51'0 0.0
2018-Feb-12 13:30N 43°24' E 004°51'0 0.0
2018-Feb-12 13:00N 43°24' E 004°51'0 0.0
2018-Feb-12 12:30N 43°24' E 004°51'0 0.0
2018-Feb-12 12:00N 43°24' E 004°51'0 0.0
2018-Feb-12 11:30N 43°24' E 004°51'0 0.0
2018-Feb-12 10:55N 43°24' E 004°51'0 0.0
2018-Feb-12 10:26N 43°24' E 004°51'0 0.0
2018-Feb-12 09:56N 43°24' E 004°51'0 0.0
2018-Feb-12 09:30N 43°24' E 004°51'0 0.0
2018-Feb-12 09:00N 43°24' E 004°51'0 0.0
2018-Feb-12 08:30N 43°24' E 004°51'0 0.0
2018-Feb-12 08:00N 43°24' E 004°51'0 0.0
2018-Feb-12 07:29N 43°24' E 004°51'0 0.0
2018-Feb-12 06:59N 43°24' E 004°51'0 0.0
2018-Feb-12 06:28N 43°24' E 004°51'0 0.0
2018-Feb-12 05:58N 43°24' E 004°51'0 0.0
2018-Feb-12 05:28N 43°24' E 004°51'0 0.0
2018-Feb-12 04:57N 43°24' E 004°51'0 0.0
2018-Feb-12 04:27N 43°24' E 004°51'0 0.9
2018-Feb-12 04:00N 43°24' E 004°51'510.8
2018-Feb-12 03:30N 43°22' E 004°58'4 9.0
2018-Feb-12 03:00N 43°18' E 004°60'15011.5
2018-Feb-11 13:58N 43°50' E 008°22'714.3
2018-Feb-11 13:30N 43°56' E 008°26'714.5
2018-Feb-11 13:00N 44°03' E 008°29'714.1
2018-Feb-11 12:30N 44°10' E 008°33'714.4
2018-Feb-11 12:00N 44°17' E 008°32'3 4.9
2018-Feb-11 11:29N 44°19' E 008°30'0 0.0
2018-Feb-11 10:59N 44°19' E 008°30'0 0.0
2018-Feb-11 10:29N 44°19' E 008°30'0 0.0
2018-Feb-11 10:00N 44°19' E 008°30'0 0.0
2018-Feb-11 09:27N 44°19' E 008°30'0 0.0
2018-Feb-11 09:00N 44°19' E 008°30'0 0.0
2018-Feb-11 08:30N 44°19' E 008°30'0 0.0
2018-Feb-11 07:58N 44°19' E 008°30'0 0.0
2018-Feb-11 07:28N 44°19' E 008°30'0 0.1
2018-Feb-11 06:59N 44°19' E 008°30'2 3.3
2018-Feb-11 06:30N 44°18' E 008°32'713.8
2018-Feb-11 06:00N 44°12' E 008°37'816.0
2018-Feb-11 05:31N 44°06' E 008°43'1018.9
2018-Feb-11 05:00N 43°58' E 008°51'918.6
2018-Feb-11 04:30N 43°50' E 008°58'918.0
2018-Feb-11 04:00N 43°43' E 009°05'918.1
2018-Feb-11 03:31N 43°35' E 009°12'918.9
2018-Feb-11 03:01N 43°27' E 009°19'918.4
2018-Feb-11 02:30N 43°19' E 009°25'918.3
2018-Feb-11 02:01N 43°12' E 009°32'2518.1
2018-Feb-11 00:39N 42°50' E 009°47'318.9
2018-Feb-11 00:30N 42°48' E 009°50'1718.9
2018-Feb-10 23:38N 42°38' E 010°09'618.9
2018-Feb-10 23:20N 42°35' E 010°15'  
Track history (hours):
 
Tides and Currents Weather Stations Pressure Air Temp Water Temp Dewpoint Dewpoint Depression Visibility Wind Speed Wind Dir Waves Ship Positions

Lapis Arrow

Last reported at 2018-Feb-18 13:46 UTC. Time now 2018-Feb-21 03:51 UTC.
Position N 37°44' E 024°18'.

Length 176 m; draft 7.3 m.

Type: Cargo ship. MMSI: 308800800.

Date/timePositionNaut miles runAvg speedWind from/ knotsBaromVisibWave heightAir tempDewpointWater temp
2018-Feb-18 13:46N 37°44' E 024°18'38513.6
2018-Feb-17 09:26N 37°41' E 016°12'715.6
2018-Feb-17 08:58N 37°43' E 016°03'715.8
2018-Feb-17 08:30N 37°45' E 015°54'815.4
2018-Feb-17 08:00N 37°48' E 015°45'814.7
2018-Feb-17 07:26N 37°54' E 015°37'715.6
2018-Feb-17 07:00N 38°01' E 015°36'816.7
2018-Feb-17 06:29N 38°09' E 015°35'915.3
2018-Feb-17 05:54N 38°17' E 015°41'512.7
2018-Feb-17 05:30N 38°22' E 015°39'815.2
2018-Feb-17 04:59N 38°29' E 015°35'1816.1
2018-Feb-17 03:54N 38°45' E 015°27'4316.1
2018-Feb-17 01:15N 39°25' E 015°08'516.1
2018-Feb-17 00:55N 39°30' E 015°05'  
2018-Feb-14 18:48N 38°59' E 003°04'515.4
2018-Feb-14 18:26N 38°60' E 002°57'715.4
2018-Feb-14 17:59N 39°01' E 002°49'815.4
2018-Feb-14 17:30N 39°02' E 002°39'4415.7
2018-Feb-14 14:43N 39°09' E 001°43'316.2
2018-Feb-14 14:30N 39°09' E 001°39'8915.9
2018-Feb-14 08:52N 39°26' W 000°15'3 8.5
2018-Feb-14 08:30N 39°26' W 000°18'0 0.3
2018-Feb-14 07:59N 39°26' W 000°18'0 0.0
2018-Feb-14 07:16N 39°26' W 000°18'0 0.0
2018-Feb-14 06:58N 39°26' W 000°18'0 0.0
2018-Feb-14 05:40N 39°26' W 000°18'0 0.0
2018-Feb-14 05:28N 39°26' W 000°18'0 0.0
2018-Feb-14 04:55N 39°26' W 000°18'0 0.0
2018-Feb-14 04:28N 39°26' W 000°18'0 0.0
2018-Feb-14 03:36N 39°26' W 000°18'0 0.0
2018-Feb-14 03:24N 39°26' W 000°18'0 0.0
2018-Feb-14 02:44N 39°26' W 000°18'0 0.0
2018-Feb-13 18:05N 39°26' W 000°18'0 0.5
2018-Feb-13 17:59N 39°26' W 000°18'2 4.3
2018-Feb-13 17:28N 39°26' W 000°16'15414.7
2018-Feb-13 06:58N 41°02' E 002°23'716.0
2018-Feb-13 06:31N 41°07' E 002°30'15616.0
2018-Feb-12 20:46N 42°60' E 004°54'515.3
2018-Feb-12 20:26N 43°04' E 004°58'715.4
2018-Feb-12 19:59N 43°11' E 005°01'815.9
2018-Feb-12 19:30N 43°18' E 004°59'611.1
2018-Feb-12 19:00N 43°23' E 004°56'4 8.1
2018-Feb-12 18:30N 43°24' E 004°51'0 0.2
2018-Feb-12 17:58N 43°24' E 004°51'0 0.0
2018-Feb-12 17:27N 43°24' E 004°51'0 0.0
2018-Feb-12 17:00N 43°24' E 004°51'0 0.0
2018-Feb-12 16:28N 43°24' E 004°51'0 0.0
2018-Feb-12 15:58N 43°24' E 004°51'0 0.0
2018-Feb-12 15:17N 43°24' E 004°51'0 0.0
2018-Feb-12 14:59N 43°24' E 004°51'0 0.0
2018-Feb-12 14:30N 43°24' E 004°51'0 0.0
2018-Feb-12 13:55N 43°24' E 004°51'0 0.0
2018-Feb-12 13:30N 43°24' E 004°51'0 0.0
2018-Feb-12 13:00N 43°24' E 004°51'0 0.0
2018-Feb-12 12:30N 43°24' E 004°51'0 0.0
2018-Feb-12 12:00N 43°24' E 004°51'0 0.0
2018-Feb-12 11:30N 43°24' E 004°51'0 0.0
2018-Feb-12 10:55N 43°24' E 004°51'0 0.0
2018-Feb-12 10:26N 43°24' E 004°51'0 0.0
2018-Feb-12 09:56N 43°24' E 004°51'0 0.0
2018-Feb-12 09:30N 43°24' E 004°51'0 0.0
2018-Feb-12 09:00N 43°24' E 004°51'0 0.0
2018-Feb-12 08:30N 43°24' E 004°51'0 0.0
2018-Feb-12 08:00N 43°24' E 004°51'0 0.0
2018-Feb-12 07:29N 43°24' E 004°51'0 0.0
2018-Feb-12 06:59N 43°24' E 004°51'0 0.0
2018-Feb-12 06:28N 43°24' E 004°51'0 0.0
2018-Feb-12 05:58N 43°24' E 004°51'0 0.0
2018-Feb-12 05:28N 43°24' E 004°51'0 0.0
2018-Feb-12 04:57N 43°24' E 004°51'0 0.0
2018-Feb-12 04:27N 43°24' E 004°51'0 0.9
2018-Feb-12 04:00N 43°24' E 004°51'510.8
2018-Feb-12 03:30N 43°22' E 004°58'4 9.0
2018-Feb-12 03:00N 43°18' E 004°60'15011.5
2018-Feb-11 13:58N 43°50' E 008°22'714.3
2018-Feb-11 13:30N 43°56' E 008°26'714.5
2018-Feb-11 13:00N 44°03' E 008°29'714.1
2018-Feb-11 12:30N 44°10' E 008°33'714.4
2018-Feb-11 12:00N 44°17' E 008°32'3 4.9
2018-Feb-11 11:29N 44°19' E 008°30'0 0.0
2018-Feb-11 10:59N 44°19' E 008°30'0 0.0
2018-Feb-11 10:29N 44°19' E 008°30'0 0.0
2018-Feb-11 10:00N 44°19' E 008°30'0 0.0
2018-Feb-11 09:27N 44°19' E 008°30'0 0.0
2018-Feb-11 09:00N 44°19' E 008°30'0 0.0
2018-Feb-11 08:30N 44°19' E 008°30'0 0.0
2018-Feb-11 07:58N 44°19' E 008°30'0 0.0
2018-Feb-11 07:28N 44°19' E 008°30'0 0.1
2018-Feb-11 06:59N 44°19' E 008°30'2 3.3
2018-Feb-11 06:30N 44°18' E 008°32'713.8
2018-Feb-11 06:00N 44°12' E 008°37'816.0
2018-Feb-11 05:31N 44°06' E 008°43'1018.9
2018-Feb-11 05:00N 43°58' E 008°51'918.6
2018-Feb-11 04:30N 43°50' E 008°58'918.0
2018-Feb-11 04:00N 43°43' E 009°05'918.1
2018-Feb-11 03:31N 43°35' E 009°12'918.9
2018-Feb-11 03:01N 43°27' E 009°19'918.4
2018-Feb-11 02:30N 43°19' E 009°25'918.3
2018-Feb-11 02:01N 43°12' E 009°32'2518.1
2018-Feb-11 00:39N 42°50' E 009°47'318.9
2018-Feb-11 00:30N 42°48' E 009°50'1718.9
2018-Feb-10 23:38N 42°38' E 010°09'618.9
2018-Feb-10 23:20N 42°35' E 010°15'  

Dump ship's entire track history